Time;durP1;ratioP1;P1;durP2;ratioP2;P2;SDS_P1;SDS_P2;PMS_P1;PMS_P2;Temp;Humidity;BMP_temperature;BMP_pressure;BME280_temperature;BME280_humidity;BME280_pressure;Samples;Min_cycle;Max_cycle;Signal;HPM_P1;HPM_P2
2022/03/19 00:00:47;;;;;;;15.95;9.45;;;;;;;6.63;70.45;104311.50;5032829;28;20469;-57
2022/03/19 00:03:12;;;;;;;15.50;9.52;;;;;;;6.66;71.13;104311.44;5034689;28;20033;-56
2022/03/19 00:05:38;;;;;;;18.10;9.35;;;;;;;6.63;70.91;104311.50;5031760;28;20026;-56
2022/03/19 00:08:04;;;;;;;17.50;9.68;;;;;;;6.61;70.72;104308.06;5041515;28;20407;-56
2022/03/19 00:10:29;;;;;;;20.92;10.20;;;;;;;6.58;70.81;104307.25;5048191;28;20045;-56
2022/03/19 00:12:54;;;;;;;20.02;9.50;;;;;;;6.58;71.04;104309.88;5032561;28;20477;-56
2022/03/19 00:15:20;;;;;;;17.17;9.50;;;;;;;6.55;71.07;104310.00;5030819;28;20033;-56
2022/03/19 00:17:45;;;;;;;19.67;10.25;;;;;;;6.53;71.15;104311.81;5033671;28;20040;-56
2022/03/19 00:20:11;;;;;;;17.75;9.90;;;;;;;6.52;70.89;104310.06;5034148;28;20025;-56
2022/03/19 00:22:39;;;;;;;19.08;9.77;;;;;;;6.49;71.65;104304.91;5032800;28;20037;-56
2022/03/19 00:25:05;;;;;;;19.83;10.25;;;;;;;6.47;71.66;104306.75;5023140;28;20116;-56
2022/03/19 00:27:30;;;;;;;18.73;10.73;;;;;;;6.46;71.93;104311.16;5033870;28;20025;-57
2022/03/19 00:29:56;;;;;;;19.33;10.27;;;;;;;6.44;71.86;104306.81;5033514;28;20033;-56
2022/03/19 00:32:21;;;;;;;16.42;9.85;;;;;;;6.43;71.48;104305.94;5033801;28;20037;-56
2022/03/19 00:34:46;;;;;;;16.33;9.90;;;;;;;6.41;71.82;104301.66;5033248;28;20026;-56
2022/03/19 00:37:12;;;;;;;19.17;10.15;;;;;;;6.40;72.06;104302.56;5024984;28;20030;-56
2022/03/19 00:39:37;;;;;;;17.60;10.57;;;;;;;6.38;71.90;104301.75;5033931;28;20040;-56
2022/03/19 00:42:03;;;;;;;17.45;10.40;;;;;;;6.35;72.12;104297.44;5029778;28;20040;-57
2022/03/19 00:44:28;;;;;;;15.93;10.18;;;;;;;6.33;72.46;104294.84;5032005;28;20439;-56
2022/03/19 00:46:53;;;;;;;20.40;11.13;;;;;;;6.29;72.50;104298.50;5033201;28;20112;-56
2022/03/19 00:49:19;;;;;;;18.35;10.77;;;;;;;6.26;72.76;104293.31;5032720;28;20037;-57
2022/03/19 00:51:44;;;;;;;21.65;11.10;;;;;;;6.23;72.29;104293.41;5033633;28;20488;-56
2022/03/19 00:54:12;;;;;;;17.90;11.02;;;;;;;6.20;72.90;104296.13;5033619;28;20029;-57
2022/03/19 00:56:37;;;;;;;19.73;10.30;;;;;;;6.17;72.37;104288.34;5026198;28;20033;-57
2022/03/19 00:59:03;;;;;;;18.50;10.82;;;;;;;6.15;72.51;104290.13;5031798;28;20524;-56
2022/03/19 01:01:28;;;;;;;20.50;11.00;;;;;;;6.13;72.62;104291.97;5033197;28;20025;-56
2022/03/19 01:03:54;;;;;;;18.30;10.77;;;;;;;6.11;73.12;104289.38;5033040;28;20688;-56
2022/03/19 01:06:20;;;;;;;20.27;11.13;;;;;;;6.10;73.40;104285.00;5028405;28;20029;-56
2022/03/19 01:08:45;;;;;;;18.15;10.90;;;;;;;6.05;73.22;104282.53;5034238;28;20107;-56
2022/03/19 01:11:10;;;;;;;20.27;11.00;;;;;;;6.03;72.81;104281.69;5033223;28;20030;-56
2022/03/19 01:13:36;;;;;;;20.75;11.57;;;;;;;6.02;73.75;104287.88;5033127;28;20032;-56
2022/03/19 01:16:02;;;;;;;18.67;11.80;;;;;;;5.99;73.58;104290.59;5029477;28;20040;-56
2022/03/19 01:18:28;;;;;;;20.35;11.77;;;;;;;5.94;73.55;104287.22;5036467;28;20033;-56
2022/03/19 01:20:53;;;;;;;16.60;10.82;;;;;;;5.92;73.43;104284.63;5052121;28;20091;-56
2022/03/19 01:23:19;;;;;;;22.15;11.93;;;;;;;5.89;74.33;104278.59;5035506;28;20075;-55
2022/03/19 01:25:44;;;;;;;20.52;12.25;;;;;;;5.85;74.38;104282.22;5031768;28;20038;-57
2022/03/19 01:28:09;;;;;;;20.33;12.30;;;;;;;5.84;73.55;104280.47;5033102;28;20033;-57
2022/03/19 01:30:35;;;;;;;20.17;11.93;;;;;;;5.83;74.22;104276.13;5029304;28;20464;-56
2022/03/19 01:33:00;;;;;;;20.52;12.55;;;;;;;5.81;74.06;104283.22;5031861;28;20064;-56
2022/03/19 01:35:25;;;;;;;24.30;12.75;;;;;;;5.77;74.28;104275.41;5030733;28;20520;-56
2022/03/19 01:37:51;;;;;;;21.08;12.60;;;;;;;5.75;74.89;104278.97;5032570;28;20026;-56
2022/03/19 01:40:17;;;;;;;23.23;13.75;;;;;;;5.74;74.51;104279.91;5032746;28;20022;-56
2022/03/19 01:42:46;;;;;;;24.50;13.80;;;;;;;5.68;74.77;104270.41;5032596;28;20057;-57
2022/03/19 01:45:20;;;;;;;22.38;13.30;;;;;;;5.67;74.74;104266.03;5027035;28;20401;-56
2022/03/19 01:47:47;;;;;;;21.70;13.68;;;;;;;5.70;75.10;104272.97;5030191;28;20079;-56
2022/03/19 01:50:13;;;;;;;24.05;14.32;;;;;;;5.65;75.22;104266.09;5014759;28;20415;-57
2022/03/19 01:52:39;;;;;;;18.90;13.60;;;;;;;5.68;75.36;104266.91;5032092;28;20029;-56
2022/03/19 01:55:05;;;;;;;23.70;14.00;;;;;;;5.60;75.94;104268.00;5027466;28;20080;-57
2022/03/19 01:57:37;;;;;;;22.67;14.32;;;;;;;5.59;75.33;104262.75;5031359;28;20108;-56
2022/03/19 02:00:04;;;;;;;23.40;14.82;;;;;;;5.56;75.51;104266.34;5032575;28;20033;-56
2022/03/19 02:02:30;;;;;;;22.85;15.10;;;;;;;5.54;75.70;104256.75;5032023;28;20488;-56
2022/03/19 02:04:58;;;;;;;21.10;14.65;;;;;;;5.52;76.02;104265.56;5028232;28;20034;-56
2022/03/19 02:07:23;;;;;;;24.17;15.90;;;;;;;5.51;76.10;104255.94;5028100;28;20044;-57
2022/03/19 02:09:48;;;;;;;24.52;15.40;;;;;;;5.51;76.42;104263.84;5032114;28;20206;-56
2022/03/19 02:12:13;;;;;;;22.77;15.85;;;;;;;5.47;76.64;104256.94;5032047;28;20095;-56
2022/03/19 02:14:40;;;;;;;25.50;16.02;;;;;;;5.49;77.02;104246.38;5031327;28;20033;-56
2022/03/19 02:17:07;;;;;;;23.27;16.60;;;;;;;5.45;76.34;104248.22;5046176;28;20609;-57
2022/03/19 02:19:33;;;;;;;23.13;16.33;;;;;;;5.46;77.27;104247.31;5031924;28;20369;-56
2022/03/19 02:21:59;;;;;;;24.95;16.45;;;;;;;5.44;76.91;104241.25;5024949;28;20025;-55
2022/03/19 02:27:09;;;;;;;25.65;16.92;;;;;;;5.41;77.22;104236.06;5032162;28;20103;-56
2022/03/19 02:29:35;;;;;;;27.30;16.95;;;;;;;5.40;77.52;104231.69;5037968;28;20143;-57
2022/03/19 02:32:05;;;;;;;23.65;16.42;;;;;;;5.40;77.54;104229.06;5031563;28;20057;-55
2022/03/19 02:34:33;;;;;;;25.50;16.52;;;;;;;5.41;77.01;104229.91;5031390;28;20445;-55
2022/03/19 02:36:59;;;;;;;23.58;16.73;;;;;;;5.38;78.13;104223.84;5030886;28;20029;-56
2022/03/19 02:39:30;;;;;;;25.55;17.83;;;;;;;5.33;77.53;104212.56;5030314;28;20074;-56
2022/03/19 02:41:57;;;;;;;28.08;17.60;;;;;;;5.35;78.04;104215.16;5021160;28;20488;-56
2022/03/19 02:44:22;;;;;;;27.00;17.90;;;;;;;5.32;78.63;104213.50;5020195;28;20029;-56
2022/03/19 02:46:50;;;;;;;28.85;17.92;;;;;;;5.33;78.87;104217.00;5031624;28;20548;-55
2022/03/19 02:49:17;;;;;;;28.45;17.63;;;;;;;5.30;78.20;104203.91;5019055;28;20033;-56
2022/03/19 02:51:45;;;;;;;28.00;17.33;;;;;;;5.31;78.85;104203.88;5031502;28;20642;-56
2022/03/19 02:54:15;;;;;;;29.88;18.00;;;;;;;5.23;78.68;104206.72;5031182;28;20033;-56
2022/03/19 02:56:42;;;;;;;28.40;17.55;;;;;;;5.30;79.05;104206.53;5025393;28;20038;-56
2022/03/19 02:59:11;;;;;;;27.55;17.63;;;;;;;5.25;79.18;104204.88;5021689;28;20105;-56
2022/03/19 03:01:37;;;;;;;25.85;17.65;;;;;;;5.25;79.86;104209.31;5027194;28;20372;-57
2022/03/19 03:04:03;;;;;;;32.58;17.05;;;;;;;5.25;79.41;104204.03;5023305;28;20044;-56
2022/03/19 03:06:28;;;;;;;27.75;17.52;;;;;;;5.24;79.09;104212.84;5029586;28;20026;-57
2022/03/19 03:08:55;;;;;;;29.27;17.23;;;;;;;5.25;79.46;104204.88;5029834;28;20045;-57
2022/03/19 03:11:20;;;;;;;28.13;17.60;;;;;;;5.31;79.66;104205.63;5031129;28;20103;-56
2022/03/19 03:13:45;;;;;;;26.58;16.45;;;;;;;5.35;79.59;104209.91;5029259;28;20037;-56
2022/03/19 03:16:10;;;;;;;28.13;17.42;;;;;;;5.28;80.13;104203.09;5030894;28;20037;-56
2022/03/19 03:18:37;;;;;;;26.98;16.42;;;;;;;5.27;79.77;104202.22;5031233;28;20583;-56
2022/03/19 03:21:02;;;;;;;27.65;16.42;;;;;;;5.28;80.77;104203.09;5031288;28;20029;-56
2022/03/19 03:23:27;;;;;;;27.70;16.60;;;;;;;5.29;80.42;104202.19;5025748;28;20021;-56
2022/03/19 03:25:53;;;;;;;26.10;16.67;;;;;;;5.23;80.26;104209.34;5030039;28;20156;-56
2022/03/19 03:28:18;;;;;;;26.30;16.45;;;;;;;5.24;80.80;104205.81;5031240;28;20472;-55
2022/03/19 03:30:43;;;;;;;27.45;16.45;;;;;;;5.20;80.46;104206.81;5027358;28;20025;-56
2022/03/19 03:33:09;;;;;;;26.02;16.67;;;;;;;5.24;80.46;104213.69;5014242;28;20048;-56
2022/03/19 03:35:34;;;;;;;30.05;16.73;;;;;;;5.20;80.97;104213.81;5031419;28;20489;-57
2022/03/19 03:38:00;;;;;;;28.77;16.50;;;;;;;5.17;81.02;104217.41;5029266;28;20048;-56
2022/03/19 03:40:25;;;;;;;26.55;16.88;;;;;;;5.17;80.80;104206.88;5029835;28;20029;-56
2022/03/19 03:42:51;;;;;;;25.85;16.55;;;;;;;5.17;80.77;104208.66;5032004;28;21414;-55
2022/03/19 03:45:16;;;;;;;28.02;15.98;;;;;;;5.15;80.53;104213.09;5028627;28;20534;-56
2022/03/19 03:47:41;;;;;;;26.60;16.67;;;;;;;5.13;80.68;104205.22;5030698;28;20069;-57
2022/03/19 03:50:07;;;;;;;25.42;16.40;;;;;;;5.10;81.11;104200.91;5032067;28;20064;-56
2022/03/19 03:52:32;;;;;;;24.30;15.80;;;;;;;5.08;81.48;104202.72;5034347;28;20029;-56
2022/03/19 03:54:57;;;;;;;27.85;15.75;;;;;;;5.06;81.62;104208.94;5033160;28;20033;-56
2022/03/19 03:57:23;;;;;;;29.27;16.17;;;;;;;5.05;81.42;104201.97;5034597;28;20030;-56
2022/03/19 03:59:50;;;;;;;24.10;15.43;;;;;;;5.02;81.82;104196.78;5034415;28;20465;-56
2022/03/19 04:02:16;;;;;;;28.83;15.68;;;;;;;5.00;81.90;104191.56;5029346;28;20029;-56
2022/03/19 04:04:42;;;;;;;28.13;15.70;;;;;;;4.95;81.83;104202.19;5028170;28;20034;-56
2022/03/19 04:07:07;;;;;;;25.42;16.27;;;;;;;4.97;82.15;104200.41;5034362;28;20071;-57
2022/03/19 04:09:32;;;;;;;28.75;16.55;;;;;;;4.89;82.34;104194.47;5033625;28;20051;-56
2022/03/19 04:11:58;;;;;;;25.85;15.32;;;;;;;4.91;82.18;104190.03;5034126;28;20400;-56
2022/03/19 04:14:24;;;;;;;25.48;15.25;;;;;;;4.90;82.44;104188.31;5028562;28;20029;-56
2022/03/19 04:16:49;;;;;;;25.98;15.32;;;;;;;4.89;82.12;104194.47;5030972;28;20057;-55
2022/03/19 04:19:14;;;;;;;25.52;15.52;;;;;;;4.86;82.37;104191.94;5034313;28;20633;-56
2022/03/19 04:21:39;;;;;;;27.15;15.02;;;;;;;4.88;82.06;104195.38;5032667;28;20091;-56
2022/03/19 04:24:05;;;;;;;26.95;15.40;;;;;;;4.88;82.69;104191.91;5030967;28;20029;-56
2022/03/19 04:26:30;;;;;;;25.13;15.30;;;;;;;4.85;81.96;104182.31;5028773;28;20040;-56
2022/03/19 04:28:56;;;;;;;25.38;14.82;;;;;;;4.84;81.78;104188.50;5033832;28;20044;-56
2022/03/19 04:31:21;;;;;;;25.00;15.07;;;;;;;4.81;81.97;104188.56;5033886;28;20045;-55
2022/03/19 04:33:46;;;;;;;26.25;14.98;;;;;;;4.78;82.22;104188.66;5030791;28;20026;-56
2022/03/19 04:36:30;;;;;;;27.58;14.93;;;;;;;4.78;82.45;104188.66;5029299;28;20048;-56
2022/03/19 04:38:55;;;;;;;26.52;15.02;;;;;;;4.73;82.66;104180.03;5033028;28;20037;-55
2022/03/19 04:41:20;;;;;;;31.90;15.60;;;;;;;4.73;82.98;104180.03;5033636;28;20029;-55
2022/03/19 04:43:46;;;;;;;25.88;14.70;;;;;;;4.70;82.66;104176.53;5046071;28;20428;-56
2022/03/19 04:46:11;;;;;;;26.03;15.57;;;;;;;4.69;82.75;104176.63;5033837;28;20044;-55
2022/03/19 04:48:36;;;;;;;26.10;15.40;;;;;;;4.67;82.35;104181.03;5034408;28;20032;-56
2022/03/19 04:51:02;;;;;;;26.43;15.13;;;;;;;4.65;82.59;104178.47;5037708;28;20377;-55
2022/03/19 04:53:27;;;;;;;26.63;15.77;;;;;;;4.63;82.77;104172.34;5033602;28;20473;-56
2022/03/19 04:55:53;;;;;;;26.17;14.57;;;;;;;4.59;82.90;104168.06;5031387;28;20243;-55
2022/03/19 04:58:18;;;;;;;27.10;15.53;;;;;;;4.57;82.98;104177.78;5031985;28;20065;-57
2022/03/19 05:00:44;;;;;;;24.30;15.10;;;;;;;4.55;82.89;104171.72;5019603;28;20121;-55
2022/03/19 05:03:11;;;;;;;25.60;15.23;;;;;;;4.54;83.08;104177.88;5025186;28;20088;-56
2022/03/19 05:05:36;;;;;;;26.00;14.97;;;;;;;4.50;83.62;104178.84;5029945;28;20079;-57
2022/03/19 05:08:03;;;;;;;25.60;15.00;;;;;;;4.48;83.07;104181.50;5031531;28;20041;-56
2022/03/19 05:13:13;;;;;;;25.63;15.47;;;;;;;4.47;83.13;104176.28;5023721;28;20055;-56
2022/03/19 05:15:39;;;;;;;26.43;15.30;;;;;;;4.42;82.94;104182.53;5030878;28;20469;-56
2022/03/19 05:18:05;;;;;;;27.25;15.20;;;;;;;4.40;83.32;104181.69;5029043;28;20044;-57
2022/03/19 05:20:31;;;;;;;27.75;15.63;;;;;;;4.34;83.75;104171.31;5032287;28;20037;-56
2022/03/19 05:22:56;;;;;;;29.27;16.30;;;;;;;4.36;84.00;104187.94;5042064;28;20078;-56
2022/03/19 05:25:21;;;;;;;27.83;15.43;;;;;;;4.38;83.32;104191.38;5014732;28;20079;-56
2022/03/19 05:27:47;;;;;;;25.43;15.73;;;;;;;4.38;83.90;104180.00;5030779;28;20033;-56
2022/03/19 05:30:12;;;;;;;31.27;15.57;;;;;;;4.34;83.47;104186.25;5030407;28;20030;-56
2022/03/19 05:32:39;;;;;;;32.17;16.50;;;;;;;4.33;84.46;104188.00;5031154;28;20091;-56
2022/03/19 05:35:05;;;;;;;29.00;16.20;;;;;;;4.30;83.62;104186.31;5031431;28;20044;-56
2022/03/19 05:37:31;;;;;;;29.30;15.80;;;;;;;4.29;84.50;104191.59;5032476;28;20033;-55
2022/03/19 05:39:57;;;;;;;27.87;16.47;;;;;;;4.26;84.41;104191.69;5031890;28;20190;-55
2022/03/19 05:42:23;;;;;;;29.65;16.05;;;;;;;4.24;84.25;104190.88;5031735;28;20018;-56
2022/03/19 05:44:49;;;;;;;27.07;16.37;;;;;;;4.26;84.13;104192.56;5024993;28;20165;-55
2022/03/19 05:47:14;;;;;;;29.57;16.20;;;;;;;4.24;84.30;104196.13;5018016;28;20030;-57
2022/03/19 05:49:40;;;;;;;23.98;16.25;;;;;;;4.22;84.12;104190.00;5032163;28;20377;-56
2022/03/19 05:52:06;;;;;;;26.63;16.23;;;;;;;4.23;84.03;104187.34;5032510;28;20104;-55
2022/03/19 05:54:31;;;;;;;28.00;15.87;;;;;;;4.21;84.67;104188.28;5026349;28;20595;-55
2022/03/19 05:56:56;;;;;;;29.43;16.03;;;;;;;4.21;84.21;104188.28;5024194;28;20112;-55
2022/03/19 05:59:22;;;;;;;28.37;16.97;;;;;;;4.21;84.28;104188.28;5031109;28;20030;-58
2022/03/19 06:01:47;;;;;;;28.80;16.47;;;;;;;4.24;84.83;104193.50;5031724;28;20036;-56
2022/03/19 06:04:13;;;;;;;26.37;16.13;;;;;;;4.23;84.60;104186.47;5030464;28;20029;-56
2022/03/19 06:06:38;;;;;;;27.53;16.57;;;;;;;4.24;84.51;104188.22;5026089;28;20575;-56
2022/03/19 06:09:04;;;;;;;27.40;16.80;;;;;;;4.26;84.87;104194.31;5032028;28;20049;-58
2022/03/19 06:11:30;;;;;;;28.93;15.97;;;;;;;4.32;84.81;104191.53;5031728;28;20075;-57
2022/03/19 06:13:55;;;;;;;26.73;16.00;;;;;;;4.30;84.23;104190.72;5030712;28;20060;-56
2022/03/19 06:16:21;;;;;;;24.83;15.90;;;;;;;4.35;84.87;104201.09;5028440;28;20041;-56
2022/03/19 06:18:50;;;;;;;29.10;16.50;;;;;;;4.38;84.72;104201.88;5031893;28;20037;-57
2022/03/19 06:21:15;;;;;;;28.17;16.60;;;;;;;4.39;84.56;104200.97;5031512;28;20045;-56
2022/03/19 06:23:41;;;;;;;31.97;16.17;;;;;;;4.47;84.68;104192.91;5031943;28;20030;-55
2022/03/19 06:26:06;;;;;;;27.93;16.23;;;;;;;4.46;84.53;104209.59;5019803;28;20393;-56
2022/03/19 06:28:31;;;;;;;27.77;16.27;;;;;;;4.48;84.69;104197.25;5031826;28;20481;-56
2022/03/19 06:30:57;;;;;;;29.10;16.67;;;;;;;4.50;84.91;104194.59;5031696;28;20041;-56
2022/03/19 06:33:22;;;;;;;29.48;16.27;;;;;;;4.57;84.85;104198.81;5031845;28;20388;-55
2022/03/19 06:38:31;;;;;;;26.33;16.10;;;;;;;4.62;84.54;104196.94;5025131;28;20056;-56
2022/03/19 06:41:00;;;;;;;31.33;16.30;;;;;;;4.66;84.33;104201.22;5023505;28;20523;-56
2022/03/19 06:43:26;;;;;;;27.38;16.00;;;;;;;4.68;84.65;104196.78;5024676;28;20120;-56
2022/03/19 06:45:57;;;;;;;30.77;16.13;;;;;;;4.74;83.92;104202.78;5034913;28;20037;-56
2022/03/19 06:48:22;;;;;;;27.98;15.80;;;;;;;4.75;84.10;104204.50;5025813;28;20032;-56
2022/03/19 06:50:47;;;;;;;28.20;16.67;;;;;;;4.81;83.91;104209.59;5031333;28;20521;-56
2022/03/19 06:53:13;;;;;;;29.50;16.08;;;;;;;4.85;83.83;104208.63;5031661;28;20087;-56
2022/03/19 06:55:38;;;;;;;27.08;16.38;;;;;;;4.88;84.04;104202.41;5030766;28;20084;-59
2022/03/19 06:58:03;;;;;;;28.60;16.20;;;;;;;4.95;83.61;104202.19;5024887;28;20513;-56
2022/03/19 07:00:28;;;;;;;28.65;16.08;;;;;;;4.96;84.54;104200.44;5027346;28;20108;-56
2022/03/19 07:02:55;;;;;;;28.08;16.23;;;;;;;4.99;84.09;104203.00;5036046;28;20095;-55
2022/03/19 07:05:27;;;;;;;32.47;16.55;;;;;;;4.97;83.60;104200.41;5030510;28;20148;-56
2022/03/19 07:07:53;;;;;;;28.60;15.63;;;;;;;5.04;84.43;104205.50;5028902;28;20112;-57
2022/03/19 07:10:19;;;;;;;26.15;15.27;;;;;;;5.13;83.21;104204.38;5032731;28;20041;-54
2022/03/19 07:12:46;;;;;;;28.67;16.75;;;;;;;5.15;84.05;104202.56;5026519;28;20092;-55
2022/03/19 07:15:17;;;;;;;31.20;17.10;;;;;;;5.19;83.70;104198.94;5031535;28;20037;-56
2022/03/19 07:17:44;;;;;;;27.20;16.25;;;;;;;5.25;83.93;104198.78;5031214;28;20059;-55
2022/03/19 07:20:11;;;;;;;28.30;16.45;;;;;;;5.30;82.99;104196.00;5031139;28;20372;-56
2022/03/19 07:22:50;;;;;;;31.15;16.02;;;;;;;5.33;83.39;104202.03;5028999;28;20369;-56
2022/03/19 07:25:16;;;;;;;27.08;15.70;;;;;;;5.39;83.22;104204.50;5035015;28;20107;-56
2022/03/19 07:27:42;;;;;;;30.95;15.55;;;;;;;5.45;83.28;104195.59;5037763;28;20564;-54
2022/03/19 07:30:08;;;;;;;30.20;15.80;;;;;;;5.51;83.02;104200.66;5025985;28;20030;-56
2022/03/19 07:32:34;;;;;;;28.20;15.57;;;;;;;5.58;82.73;104189.97;5034723;28;20803;-56
2022/03/19 07:35:00;;;;;;;31.80;15.52;;;;;;;5.64;83.11;104193.25;5025462;28;20025;-54
2022/03/19 07:37:25;;;;;;;27.05;15.18;;;;;;;5.73;82.61;104200.00;5032942;28;20131;-56
2022/03/19 07:39:51;;;;;;;25.30;14.95;;;;;;;5.79;81.62;104204.25;5033412;28;20097;-56
2022/03/19 07:42:16;;;;;;;28.48;15.43;;;;;;;5.83;82.10;104195.34;5034668;28;20033;-56
2022/03/19 07:44:41;;;;;;;25.38;14.65;;;;;;;5.93;82.20;104190.66;5034518;28;20026;-56
2022/03/19 07:47:06;;;;;;;26.45;14.90;;;;;;;6.00;81.04;104192.19;5033974;28;20384;-55
2022/03/19 07:49:32;;;;;;;24.33;14.20;;;;;;;6.08;81.43;104194.63;5034922;28;20059;-56
2022/03/19 07:51:57;;;;;;;25.00;14.48;;;;;;;6.12;80.85;104190.97;5034502;28;20021;-56
2022/03/19 07:54:27;;;;;;;26.67;14.00;;;;;;;6.15;79.93;104182.97;5033220;28;20040;-56
2022/03/19 07:56:53;;;;;;;22.98;13.88;;;;;;;6.24;80.27;104194.09;5027516;28;20044;-57
2022/03/19 07:59:19;;;;;;;26.70;13.65;;;;;;;6.32;80.54;104186.84;5034345;28;20038;-56
2022/03/19 08:01:44;;;;;;;23.90;13.88;;;;;;;6.40;80.33;104190.06;5034893;28;20088;-56
2022/03/19 08:04:09;;;;;;;24.08;12.93;;;;;;;6.49;79.55;104193.28;5024411;28;20037;-56
2022/03/19 08:06:34;;;;;;;24.00;13.70;;;;;;;6.56;79.40;104185.13;5034273;28;20449;-56
2022/03/19 08:09:01;;;;;;;28.88;14.25;;;;;;;6.66;79.92;104184.84;5035232;28;20038;-56
2022/03/19 08:11:26;;;;;;;22.17;12.75;;;;;;;6.71;78.44;104182.91;5062132;28;20448;-56
2022/03/19 08:13:51;;;;;;;22.50;12.73;;;;;;;6.72;78.23;104181.97;5047021;28;20029;-56
2022/03/19 08:16:17;;;;;;;25.02;12.98;;;;;;;6.80;78.47;104176.41;5034055;28;20026;-56
2022/03/19 08:18:42;;;;;;;23.65;12.43;;;;;;;6.87;77.08;104172.66;5030879;28;20119;-57
2022/03/19 08:21:08;;;;;;;24.63;12.18;;;;;;;6.92;77.25;104175.13;5033197;28;20084;-56
2022/03/19 08:23:35;;;;;;;21.50;11.85;;;;;;;7.04;77.50;104185.25;5039598;28;20052;-57
2022/03/19 08:26:01;;;;;;;24.05;11.90;;;;;;;7.13;76.15;104177.00;5034941;28;20028;-56
2022/03/19 08:28:27;;;;;;;21.42;11.30;;;;;;;7.20;75.94;104184.69;5032039;28;20721;-56
2022/03/19 08:30:52;;;;;;;22.30;11.65;;;;;;;7.26;75.36;104184.47;5026848;28;20106;-56
2022/03/19 08:33:17;;;;;;;20.02;10.57;;;;;;;7.35;74.86;104188.56;5029605;28;20044;-56
2022/03/19 08:35:43;;;;;;;22.10;11.35;;;;;;;7.45;74.25;104186.44;5030153;28;20384;-55
2022/03/19 08:40:51;;;;;;;22.55;10.65;;;;;;;7.57;72.99;104187.72;5024278;28;20072;-57
2022/03/19 08:43:17;;;;;;;19.95;10.23;;;;;;;7.59;73.64;104180.63;5033102;28;20060;-56
2022/03/19 08:45:42;;;;;;;19.25;10.45;;;;;;;7.66;73.44;104180.31;5028441;28;20092;-56
2022/03/19 08:48:09;;;;;;;21.88;10.55;;;;;;;7.79;72.32;104182.47;5024437;28;20036;-56
2022/03/19 08:50:35;;;;;;;19.98;10.70;;;;;;;7.81;72.21;104185.94;5037395;28;20036;-57
2022/03/19 08:53:00;;;;;;;20.63;10.40;;;;;;;7.82;72.42;104174.44;5029726;28;20021;-57
2022/03/19 08:55:25;;;;;;;19.00;10.52;;;;;;;7.89;72.20;104177.69;5028673;28;20033;-57
2022/03/19 08:57:51;;;;;;;19.35;10.70;;;;;;;7.97;72.41;104172.97;5020992;28;20033;-57
2022/03/19 09:00:16;;;;;;;18.45;10.15;;;;;;;8.02;71.09;104175.41;5021668;28;20108;-57
2022/03/19 09:02:42;;;;;;;19.15;9.85;;;;;;;8.08;71.88;104177.81;5025629;28;20480;-57
2022/03/19 09:05:10;;;;;;;21.65;10.40;;;;;;;8.12;70.73;104174.13;5036203;28;20388;-57
2022/03/19 09:07:35;;;;;;;21.02;9.70;;;;;;;8.13;70.08;104173.19;5025323;28;20030;-57
2022/03/19 09:10:00;;;;;;;20.55;10.15;;;;;;;8.20;71.32;104171.16;5025675;28;20107;-57
2022/03/19 09:12:26;;;;;;;20.38;9.52;;;;;;;8.26;70.64;104164.75;5028254;28;20438;-57
2022/03/19 09:14:53;;;;;;;21.13;10.40;;;;;;;8.23;70.42;104168.38;5023489;28;20091;-57
2022/03/19 09:17:18;;;;;;;18.02;9.52;;;;;;;8.29;70.56;104164.63;5023705;28;20504;-57
2022/03/19 09:19:44;;;;;;;21.67;9.90;;;;;;;8.37;69.77;104162.53;5022078;28;20033;-58
2022/03/19 09:22:09;;;;;;;19.65;9.60;;;;;;;8.40;69.61;104151.81;5026661;28;20043;-58
2022/03/19 09:24:34;;;;;;;19.52;9.88;;;;;;;8.41;68.58;104158.81;5027605;28;20148;-58
2022/03/19 09:26:59;;;;;;;17.80;9.50;;;;;;;8.45;68.66;104162.19;5029605;28;20026;-58
2022/03/19 09:29:27;;;;;;;20.42;9.38;;;;;;;8.42;68.86;104155.25;5026043;28;20033;-58
2022/03/19 09:31:52;;;;;;;22.00;9.45;;;;;;;8.43;68.51;104162.25;5026793;28;20026;-58
2022/03/19 09:34:17;;;;;;;18.75;8.98;;;;;;;8.51;68.85;104153.13;5019181;28;20056;-57
2022/03/19 09:36:46;;;;;;;16.98;9.02;;;;;;;8.57;68.54;104153.78;5037604;28;20749;-57
2022/03/19 09:39:13;;;;;;;19.85;8.80;;;;;;;8.66;68.25;104155.16;5032668;28;20492;-57
2022/03/19 09:41:43;;;;;;;17.00;8.20;;;;;;;8.68;67.00;104150.66;5023540;28;20056;-57
2022/03/19 09:44:11;;;;;;;18.27;8.63;;;;;;;8.73;66.78;104142.50;5024638;28;20531;-59
2022/03/19 09:46:37;;;;;;;19.83;8.73;;;;;;;8.81;67.25;104136.88;5022179;28;20461;-57
2022/03/19 09:49:03;;;;;;;19.25;8.52;;;;;;;8.92;67.27;104139.06;5026038;28;20464;-56
2022/03/19 09:51:33;;;;;;;19.70;7.82;;;;;;;9.04;66.20;104137.63;5022877;28;20065;-57
2022/03/19 09:53:59;;;;;;;15.75;8.10;;;;;;;8.99;65.90;104136.03;5026496;28;20033;-57
2022/03/19 09:56:25;;;;;;;16.48;7.65;;;;;;;9.06;64.62;104135.75;5023366;28;20063;-56
2022/03/19 09:58:52;;;;;;;19.33;8.32;;;;;;;9.12;65.18;104132.84;5021999;28;20045;-57
2022/03/19 10:01:20;;;;;;;19.02;7.78;;;;;;;9.17;64.92;104130.84;5023349;28;20104;-57
2022/03/19 10:03:49;;;;;;;15.98;6.43;;;;;;;9.27;62.31;104124.19;5023827;28;20068;-57
2022/03/19 10:09:00;;;;;;;15.00;6.72;;;;;;;9.26;60.94;104114.53;5024379;28;20076;-57
2022/03/19 10:11:35;;;;;;;12.80;6.03;;;;;;;9.24;60.36;104108.44;5018669;28;20469;-56
2022/03/19 10:14:04;;;;;;;17.40;7.32;;;;;;;9.42;62.17;104111.16;5023710;28;20041;-57
2022/03/19 10:16:33;;;;;;;16.17;7.13;;;;;;;9.41;62.44;104112.09;5023144;28;20357;-57
2022/03/19 10:19:01;;;;;;;14.27;6.40;;;;;;;9.54;60.22;104112.38;5024285;28;20053;-56
2022/03/19 10:21:28;;;;;;;14.07;6.68;;;;;;;9.50;60.99;104106.34;5019512;28;20029;-57
2022/03/19 10:23:53;;;;;;;14.85;6.10;;;;;;;9.54;59.48;104092.00;5025223;28;20026;-57
2022/03/19 10:26:30;;;;;;;15.52;6.35;;;;;;;9.51;58.90;104078.94;5027498;28;20471;-57
2022/03/19 10:29:00;;;;;;;11.20;5.45;;;;;;;9.72;56.95;104089.41;5026440;28;20025;-57
2022/03/19 10:31:41;;;;;;;14.30;6.03;;;;;;;9.76;57.12;104080.38;5028084;28;20053;-57
2022/03/19 10:34:07;;;;;;;12.82;5.22;;;;;;;9.78;54.75;104072.34;5021804;28;20038;-56
2022/03/19 10:36:38;;;;;;;15.30;5.05;;;;;;;9.80;52.74;104083.72;5023663;28;20034;-58
2022/03/19 10:39:26;;;;;;;12.82;5.63;;;;;;;9.86;53.72;104069.31;5028469;28;20063;-58
2022/03/19 10:41:53;;;;;;;13.45;5.70;;;;;;;9.91;52.22;104072.56;5023725;28;20064;-58
2022/03/19 10:44:22;;;;;;;12.77;5.10;;;;;;;9.96;51.97;104059.94;5024520;28;21528;-58
2022/03/19 10:46:56;;;;;;;11.88;4.68;;;;;;;10.00;51.00;104061.53;5030068;28;20377;-59
2022/03/19 10:49:25;;;;;;;10.18;4.45;;;;;;;10.13;48.03;104055.59;5020354;28;20033;-57
2022/03/19 10:51:56;;;;;;;13.48;5.15;;;;;;;10.11;48.99;104038.91;5017871;28;20071;-58
2022/03/19 10:54:22;;;;;;;13.55;4.53;;;;;;;10.25;49.50;104044.34;5022616;28;20392;-58
2022/03/19 10:56:49;;;;;;;13.18;4.93;;;;;;;10.40;48.86;104041.84;5017441;28;20018;-58
2022/03/19 10:59:15;;;;;;;10.38;4.57;;;;;;;10.50;47.67;104035.13;5028219;28;20049;-58
2022/03/19 11:01:41;;;;;;;11.60;4.45;;;;;;;10.54;46.87;104034.00;5032125;28;20029;-58
2022/03/19 11:04:08;;;;;;;11.68;4.18;;;;;;;10.58;46.15;104046.19;5029387;28;20372;-59
2022/03/19 11:06:38;;;;;;;11.43;4.57;;;;;;;10.53;45.56;104015.53;5025178;28;20368;-57
2022/03/19 11:09:10;;;;;;;9.65;3.90;;;;;;;10.69;44.78;104027.03;5025455;28;20054;-57
2022/03/19 11:11:41;;;;;;;11.95;4.25;;;;;;;10.76;42.80;104019.59;5024433;28;20068;-57
2022/03/19 11:14:10;;;;;;;10.90;4.18;;;;;;;10.71;40.12;104001.25;5022361;28;20068;-56
2022/03/19 11:16:37;;;;;;;9.50;4.30;;;;;;;10.83;39.08;104020.97;5032894;28;20060;-55
2022/03/19 11:19:05;;;;;;;9.13;4.05;;;;;;;10.86;38.59;104012.81;5026612;28;20040;-57
2022/03/19 11:21:32;;;;;;;8.98;3.92;;;;;;;10.87;38.86;104003.91;5027077;28;20099;-57
2022/03/19 11:24:06;;;;;;;11.98;4.28;;;;;;;10.96;39.86;103991.06;5025372;28;20025;-56
2022/03/19 11:26:33;;;;;;;12.00;4.30;;;;;;;11.07;38.57;103998.41;5022440;28;20022;-57
2022/03/19 11:28:58;;;;;;;12.77;4.22;;;;;;;11.16;39.51;103974.00;5023621;28;20021;-56